RJNY(METAR)
01/24 01:00
METAR RJNY 231600Z 25013KT 9999 FEW020 M00/M10 Q1017 RMK 1CU020
A3006=
戻る
トップページへ戻る
IMOC Co,.Ltd.